Whittier, Alaska
Current Conditions -  °F | °C
As of 4:34 PM on Wednesday 26 Nov 2014 (Local Time) from PATO Reporting Station
Broken Clouds Broken Clouds  
Wind Chill: 20°   Ceiling: 700
Heat Index: 29°   Visibility: 10mi
Dew Point: 28°   Wind: 10mph
Humidity: 96%   Direction: 310°NW
Pressure: 30.28"   Gusts: NA
Location:  60.77°N, 148.69°W
Report Text: PATO 270134Z AUTO 31009KT 10SM BKN007 BKN035 M02/M02 A3028 RMK AO2 T10171022 TSNO
Loading
Personal Weather Stations






























Interactive Weather Map New forecast layout! Learn more

10-Day Weather Forecast

Advertisements
Track Severe Weather on mobile